Time;durP1;ratioP1;P1;durP2;ratioP2;P2;SDS_P1;SDS_P2;PMS_P1;PMS_P2;Temp;Humidity;BMP_temperature;BMP_pressure;BME280_temperature;BME280_humidity;BME280_pressure;Samples;Min_cycle;Max_cycle;Signal;HPM_P1;HPM_P2
2021/10/05 00:06:35;;;;;;;1999.90;999.90;;;;;;;15.47;76.38;101264.59;15739808;28;20045;-61
2021/10/05 00:14:08;;;;;;;1999.90;999.90;;;;;;;15.97;74.71;101265.38;15705323;28;20056;-61
2021/10/05 00:21:41;;;;;;;1999.90;999.90;;;;;;;16.08;74.54;101261.69;15716153;28;20073;-61
2021/10/05 00:29:14;;;;;;;1999.90;999.90;;;;;;;16.06;74.43;101263.22;15677832;28;20072;-61
2021/10/05 00:36:47;;;;;;;1999.90;999.90;;;;;;;15.99;74.94;101251.75;15660466;28;20060;-61
2021/10/05 00:44:29;;;;;;;1999.90;999.90;;;;;;;16.17;74.53;101255.91;15672165;28;20051;-61
2021/10/05 00:52:03;;;;;;;1999.90;999.90;;;;;;;16.10;74.72;101231.19;15692600;22;20545;-60
2021/10/05 00:59:36;;;;;;;1999.90;999.90;;;;;;;15.46;76.78;101211.53;15602925;28;20081;-60
2021/10/05 01:07:12;;;;;;;1999.90;999.90;;;;;;;15.43;76.83;101218.69;15618404;28;20037;-61
2021/10/05 01:14:45;;;;;;;1999.90;999.90;;;;;;;15.70;76.36;101191.81;15601834;28;20512;-61
2021/10/05 01:22:19;;;;;;;1999.90;999.90;;;;;;;15.32;78.15;101169.72;15646433;28;20053;-61
2021/10/05 01:29:51;;;;;;;1999.90;999.90;;;;;;;15.57;76.47;101171.31;15662836;28;20122;-61
2021/10/05 01:37:25;;;;;;;1999.90;999.90;;;;;;;15.51;76.94;101163.47;15678282;28;20425;-60
2021/10/05 01:44:57;;;;;;;1999.90;999.90;;;;;;;15.59;76.07;101165.31;15678830;28;20048;-61
2021/10/05 01:52:31;;;;;;;1999.90;999.90;;;;;;;15.67;75.82;101166.38;15678082;28;20079;-61
2021/10/05 02:00:05;;;;;;;;;;;;;;;16.03;75.26;101152.16;15677196;28;20045;-61
2021/10/05 02:07:39;;;;;;;1999.90;999.90;;;;;;;15.86;76.11;101135.59;15676802;28;19921;-61
2021/10/05 02:15:11;;;;;;;1999.90;999.90;;;;;;;15.68;77.66;101132.25;15675973;28;20049;-60
2021/10/05 02:22:45;;;;;;;1999.90;999.90;;;;;;;15.90;76.80;101130.06;15645080;28;20042;-61
2021/10/05 02:30:17;;;;;;;1999.90;999.90;;;;;;;15.44;77.48;101121.06;15614273;28;20050;-61
2021/10/05 02:37:51;;;;;;;1999.90;999.90;;;;;;;15.32;77.47;101105.06;15596656;28;20115;-61
2021/10/05 02:45:23;;;;;;;1999.90;999.90;;;;;;;15.21;77.40;101092.66;15612425;28;20398;-60
2021/10/05 02:52:57;;;;;;;1999.90;999.90;;;;;;;15.25;77.31;101074.75;15612525;28;20041;-60
2021/10/05 03:00:29;;;;;;;1999.90;999.90;;;;;;;15.37;76.79;101057.00;15627369;28;20053;-60
2021/10/05 03:08:04;;;;;;;1999.90;999.90;;;;;;;15.34;76.75;101034.41;15611864;28;20042;-60
2021/10/05 03:15:37;;;;;;;1999.90;999.90;;;;;;;15.15;76.72;101035.88;15612190;28;20084;-61
2021/10/05 03:23:10;;;;;;;1999.90;999.90;;;;;;;15.21;76.61;101023.19;15647003;28;20045;-60
2021/10/05 03:30:42;;;;;;;1999.90;999.90;;;;;;;15.24;75.18;100993.56;15673144;28;20216;-60
2021/10/05 03:38:16;;;;;;;1999.90;999.90;;;;;;;15.27;75.00;100988.03;15671311;28;20484;-59
2021/10/05 03:45:49;;;;;;;1999.90;999.90;;;;;;;15.24;75.38;100974.72;15670981;28;20045;-60
2021/10/05 03:53:23;;;;;;;1999.90;999.90;;;;;;;15.21;75.09;100968.97;15672141;28;20682;-61
2021/10/05 04:00:56;;;;;;;1999.90;999.90;;;;;;;15.09;75.71;100949.34;15671013;28;20453;-60
2021/10/05 04:08:29;;;;;;;1999.90;999.90;;;;;;;14.94;75.23;100926.47;15671835;28;20130;-60
2021/10/05 04:16:03;;;;;;;1999.90;999.90;;;;;;;14.39;78.25;100908.38;15680096;28;20367;-60
2021/10/05 04:23:36;;;;;;;1999.90;999.90;;;;;;;14.53;79.62;100898.75;15644637;28;20579;-59
2021/10/05 04:31:08;;;;;;;1999.90;999.90;;;;;;;14.53;79.75;100899.59;15622540;28;20063;-61
2021/10/05 04:38:42;;;;;;;1999.90;999.90;;;;;;;14.58;79.67;100896.50;15603914;28;20390;-60
2021/10/05 04:46:14;;;;;;;1999.90;999.90;;;;;;;14.85;79.67;100866.00;15620097;28;20111;-60
2021/10/05 04:53:48;;;;;;;1999.90;999.90;;;;;;;14.80;79.90;100850.22;15618534;28;20095;-60
2021/10/05 05:01:20;;;;;;;1999.90;999.90;;;;;;;15.04;80.17;100846.47;15620057;28;20502;-58
2021/10/05 05:08:54;;;;;;;1999.90;999.90;;;;;;;14.77;81.54;100831.25;15602177;28;20132;-60
2021/10/05 05:16:26;;;;;;;1999.90;999.90;;;;;;;14.70;82.81;100808.59;15617119;28;20116;-60
2021/10/05 05:24:00;;;;;;;1999.90;999.90;;;;;;;14.86;82.79;100808.63;15658173;28;20052;-60
2021/10/05 05:31:33;;;;;;;1999.90;999.90;;;;;;;14.88;82.42;100804.28;15679459;28;20063;-59
2021/10/05 05:39:06;;;;;;;1999.90;999.90;;;;;;;14.88;82.44;100797.84;15677799;28;20041;-60
2021/10/05 05:46:39;;;;;;;1999.90;999.90;;;;;;;14.63;83.33;100785.94;15679633;28;20140;-60
2021/10/05 05:54:12;;;;;;;1999.90;999.90;;;;;;;14.68;83.82;100782.84;15660355;28;20048;-60
2021/10/05 06:01:45;;;;;;;1999.90;999.90;;;;;;;14.75;84.55;100763.41;15679249;28;20064;-61
2021/10/05 06:09:19;;;;;;;1999.90;999.90;;;;;;;14.72;84.14;100752.88;15676422;28;20656;-61
2021/10/05 06:16:51;;;;;;;1999.90;999.90;;;;;;;14.90;83.78;100744.91;15674255;28;20037;-60
2021/10/05 06:24:25;;;;;;;1999.90;999.90;;;;;;;14.96;83.72;100738.69;15630598;28;20049;-59
2021/10/05 06:31:58;;;;;;;1999.90;999.90;;;;;;;14.81;84.50;100716.22;15613079;28;20059;-60
2021/10/05 06:39:31;;;;;;;1999.90;999.90;;;;;;;14.62;85.07;100709.31;15645642;28;20037;-60
2021/10/05 06:47:04;;;;;;;1999.90;999.90;;;;;;;14.93;84.50;100688.03;15612699;28;20069;-62
2021/10/05 06:54:39;;;;;;;1999.90;999.90;;;;;;;14.85;85.09;100663.72;15659381;22;20049;-74
2021/10/05 07:02:11;;;;;;;1999.90;999.90;;;;;;;14.89;86.12;100637.34;15675408;28;20041;-75
2021/10/05 07:09:45;;;;;;;1999.90;999.90;;;;;;;15.11;85.04;100638.69;15740577;22;20044;-64
2021/10/05 07:17:18;;;;;;;1999.90;999.90;;;;;;;15.17;85.13;100627.97;15742437;28;20563;-65
2021/10/05 07:24:52;;;;;;;1999.90;999.90;;;;;;;15.09;85.93;100614.94;15682962;28;20041;-62
2021/10/05 07:32:24;;;;;;;1999.90;999.90;;;;;;;15.30;85.06;100606.97;15636871;28;20076;-60
2021/10/05 07:39:58;;;;;;;1999.90;999.90;;;;;;;15.38;85.15;100599.53;15658146;28;20525;-58
2021/10/05 07:47:30;;;;;;;1999.90;999.90;;;;;;;15.39;85.38;100573.03;15688893;28;20500;-61
2021/10/05 07:55:05;;;;;;;1999.90;999.90;;;;;;;15.53;85.35;100546.03;15701007;28;20036;-61
2021/10/05 08:02:38;;;;;;;1999.90;999.90;;;;;;;15.55;85.15;100534.44;15700381;28;20203;-62
2021/10/05 08:10:12;;;;;;;1999.90;999.90;;;;;;;15.58;85.05;100519.59;15739349;28;20485;-62
2021/10/05 08:17:45;;;;;;;1999.90;999.90;;;;;;;15.54;84.62;100518.75;15740452;28;20049;-62
2021/10/05 08:25:18;;;;;;;1999.90;999.90;;;;;;;15.83;84.29;100534.97;15609962;28;20065;-62
2021/10/05 08:32:51;;;;;;;1999.90;999.90;;;;;;;16.14;83.21;100533.13;15619259;28;20049;-62
2021/10/05 08:40:26;;;;;;;1999.90;999.90;;;;;;;16.30;81.88;100528.22;15606188;28;20050;-62
2021/10/05 08:47:58;;;;;;;1999.90;999.90;;;;;;;16.61;80.84;100507.38;15602185;28;20041;-62
2021/10/05 08:55:32;;;;;;;1999.90;999.90;;;;;;;16.64;80.14;100500.97;15615728;28;20129;-62
2021/10/05 09:03:05;;;;;;;1999.90;999.90;;;;;;;16.54;81.45;100483.91;15606581;28;20456;-63
2021/10/05 09:10:38;;;;;;;1999.90;999.90;;;;;;;16.77;80.83;100469.78;15611253;28;20050;-62
2021/10/05 09:18:10;;;;;;;1999.90;999.90;;;;;;;16.83;81.00;100471.09;15643926;28;20049;-63
2021/10/05 09:25:47;;;;;;;1999.90;999.90;;;;;;;17.07;80.33;100476.25;15683331;28;20128;-63
2021/10/05 09:33:20;;;;;;;1999.90;999.90;;;;;;;17.00;80.47;100456.44;15654250;28;20049;-61
2021/10/05 09:41:02;;;;;;;1999.90;999.90;;;;;;;17.21;79.34;100444.63;15673092;28;20045;-62
2021/10/05 09:48:35;;;;;;;1999.90;999.90;;;;;;;17.18;80.11;100436.91;15670425;28;20041;-62
2021/10/05 09:56:12;;;;;;;1999.90;999.90;;;;;;;16.96;81.14;100422.56;15630839;28;20069;-63
2021/10/05 10:03:47;;;;;;;1999.90;999.90;;;;;;;16.91;81.99;100422.09;15720507;28;20064;-63
2021/10/05 10:11:20;;;;;;;1999.90;999.90;;;;;;;17.04;82.10;100395.28;15729126;28;20455;-64
2021/10/05 10:18:54;;;;;;;1999.90;999.90;;;;;;;16.92;82.91;100379.44;15746570;28;20131;-63
2021/10/05 10:26:28;;;;;;;1999.90;999.90;;;;;;;16.72;84.64;100383.63;15683113;28;20049;-64
2021/10/05 10:34:00;;;;;;;1999.90;999.90;;;;;;;16.60;84.95;100376.19;15683235;28;20048;-63
2021/10/05 10:41:34;;;;;;;1999.90;999.90;;;;;;;16.70;84.92;100363.47;15646972;28;20104;-62
2021/10/05 10:49:14;;;;;;;1999.90;999.90;;;;;;;16.68;84.68;100363.84;15644187;28;20037;-63
2021/10/05 10:56:58;;;;;;;1999.90;999.90;;;;;;;16.79;84.35;100360.38;15688514;28;20048;-63
2021/10/05 11:04:32;;;;;;;1999.90;999.90;;;;;;;16.80;83.98;100354.34;15733061;28;20048;-63
2021/10/05 11:12:08;;;;;;;1999.90;999.90;;;;;;;16.77;84.06;100348.63;15708112;28;20044;-63
2021/10/05 11:19:42;;;;;;;1999.90;999.90;;;;;;;17.11;81.94;100339.00;15666791;28;20451;-62
2021/10/05 11:27:17;;;;;;;1999.90;999.90;;;;;;;17.37;81.78;100345.69;15656294;28;20056;-62
2021/10/05 11:34:51;;;;;;;1999.90;999.90;;;;;;;17.06;82.99;100350.59;15660376;28;20426;-63
2021/10/05 11:42:27;;;;;;;1999.90;999.90;;;;;;;16.78;84.12;100341.81;15692102;28;20071;-64
2021/10/05 11:50:03;;;;;;;1999.90;999.90;;;;;;;16.99;83.04;100330.81;15671776;28;20076;-63
2021/10/05 11:57:39;;;;;;;1999.90;999.90;;;;;;;17.16;82.70;100335.81;15678940;28;20074;-64
2021/10/05 12:05:22;;;;;;;1999.90;999.90;;;;;;;17.28;81.67;100321.44;15622011;28;20053;-63
2021/10/05 12:12:55;;;;;;;1999.90;999.90;;;;;;;17.36;81.54;100315.88;15659608;28;20036;-63
2021/10/05 12:20:28;;;;;;;1999.90;999.90;;;;;;;17.21;81.66;100306.47;15657412;28;20386;-63
2021/10/05 12:28:07;;;;;;;1999.90;999.90;;;;;;;17.37;81.34;100315.47;15674861;28;20448;-62
2021/10/05 12:35:41;;;;;;;1999.90;999.90;;;;;;;17.21;81.95;100321.38;15698412;28;20502;-63
2021/10/05 12:43:17;;;;;;;1999.90;999.90;;;;;;;17.08;82.37;100322.84;15691166;28;20107;-62
2021/10/05 12:50:49;;;;;;;1999.90;999.90;;;;;;;17.18;82.53;100333.41;15694461;28;20452;-63
2021/10/05 12:58:23;;;;;;;1999.90;999.90;;;;;;;17.08;82.56;100324.84;15724228;28;20049;-63
2021/10/05 13:05:58;;;;;;;1999.90;999.90;;;;;;;17.00;82.48;100318.34;15708956;28;20043;-62
2021/10/05 13:13:32;;;;;;;1999.90;999.90;;;;;;;17.10;82.23;100331.75;15657280;28;20041;-62
2021/10/05 13:21:04;;;;;;;1999.90;999.90;;;;;;;17.00;82.02;100338.06;15641662;28;20128;-60
2021/10/05 13:28:40;;;;;;;1999.90;999.90;;;;;;;17.11;81.79;100333.34;15684558;28;20100;-60
2021/10/05 13:36:12;;;;;;;1999.90;999.90;;;;;;;16.83;82.48;100342.28;15650943;28;20049;-61
2021/10/05 13:43:46;;;;;;;1999.90;999.90;;;;;;;16.93;82.28;100335.16;15625925;28;20124;-61
2021/10/05 13:51:18;;;;;;;1999.90;999.90;;;;;;;17.10;81.74;100359.13;15700686;28;20049;-62
2021/10/05 13:58:52;;;;;;;1999.90;999.90;;;;;;;16.55;82.11;100362.44;15725468;28;20045;-62
2021/10/05 14:06:25;;;;;;;1999.90;999.90;;;;;;;16.57;82.44;100364.84;15674172;28;20060;-60
2021/10/05 14:13:59;;;;;;;1999.90;999.90;;;;;;;16.88;81.66;100352.41;15714286;28;20053;-61
2021/10/05 14:21:32;;;;;;;1999.90;999.90;;;;;;;16.55;81.62;100350.34;15713294;28;20122;-60
2021/10/05 14:29:05;;;;;;;1999.90;999.90;;;;;;;16.64;81.26;100348.06;15728219;28;20441;-60
2021/10/05 14:36:38;;;;;;;1999.90;999.90;;;;;;;16.15;81.42;100346.19;15705122;28;20049;-63
2021/10/05 14:44:11;;;;;;;1999.90;999.90;;;;;;;16.28;80.97;100341.16;15688822;28;20056;-60
2021/10/05 14:51:44;;;;;;;1999.90;999.90;;;;;;;16.25;80.77;100353.97;15685566;28;20051;-60
2021/10/05 14:59:18;;;;;;;;;;;;;;;16.49;80.58;100357.53;15691192;28;20052;-60
2021/10/05 15:06:50;;;;;;;;;;;;;;;16.40;80.53;100355.00;15716154;28;19924;-60
2021/10/05 15:14:24;;;;;;;1999.90;999.90;;;;;;;16.30;80.99;100359.28;15696622;28;19920;-60
2021/10/05 15:21:56;;;;;;;1999.90;999.90;;;;;;;15.95;82.68;100364.38;15664270;28;20048;-59
2021/10/05 15:29:30;;;;;;;1999.90;999.90;;;;;;;16.03;81.65;100366.91;15696607;28;20395;-60
2021/10/05 15:37:03;;;;;;;1999.90;999.90;;;;;;;15.83;82.43;100360.56;15689091;28;20047;-59
2021/10/05 15:44:37;;;;;;;1999.90;999.90;;;;;;;15.58;83.47;100371.38;15662746;28;20502;-59
2021/10/05 15:52:16;;;;;;;1999.90;999.90;;;;;;;15.97;81.19;100376.06;15711421;28;20045;-60
2021/10/05 15:59:49;;;;;;;1999.90;999.90;;;;;;;15.86;81.44;100389.97;15721137;28;20051;-61
2021/10/05 16:07:22;;;;;;;1999.90;999.90;;;;;;;15.56;81.07;100420.75;15712785;28;20140;-60
2021/10/05 16:14:56;;;;;;;1999.90;999.90;;;;;;;15.40;81.09;100420.84;15709842;28;20044;-60
2021/10/05 16:22:29;;;;;;;1999.90;999.90;;;;;;;15.43;81.25;100422.13;15688742;28;20071;-62
2021/10/05 16:30:03;;;;;;;;;;;;;;;15.47;81.51;100420.19;15703011;28;20049;-60
2021/10/05 16:37:36;;;;;;;1999.90;999.90;;;;;;;15.35;81.03;100415.53;15680476;28;20355;-59
2021/10/05 16:45:11;;;;;;;1999.90;999.90;;;;;;;15.29;80.65;100420.66;15720200;28;20041;-58
2021/10/05 16:52:43;;;;;;;1999.90;999.90;;;;;;;15.32;79.98;100413.50;15719452;28;20408;-62
2021/10/05 17:00:18;;;;;;;1999.90;999.90;;;;;;;15.18;80.70;100416.81;15710754;28;20460;-60
2021/10/05 17:07:52;;;;;;;1999.90;999.90;;;;;;;15.29;80.03;100431.88;15698539;28;20037;-61
2021/10/05 17:15:26;;;;;;;1999.90;999.90;;;;;;;15.30;79.73;100453.19;15679939;28;20047;-61
2021/10/05 17:22:58;;;;;;;1999.90;999.90;;;;;;;15.33;79.83;100448.03;15708929;28;20130;-61
2021/10/05 17:30:32;;;;;;;1999.90;999.90;;;;;;;15.43;80.19;100437.00;15688356;28;20072;-60
2021/10/05 17:38:05;;;;;;;1999.90;999.90;;;;;;;15.19;80.07;100454.16;15699223;28;20072;-57
2021/10/05 17:45:39;;;;;;;1999.90;999.90;;;;;;;15.34;79.58;100461.72;15668770;28;20044;-60
2021/10/05 17:53:11;;;;;;;1999.90;999.90;;;;;;;15.36;79.34;100447.28;15692209;28;20315;-56
2021/10/05 18:00:45;;;;;;;1999.90;999.90;;;;;;;15.47;78.65;100449.09;15704573;28;20506;-61
2021/10/05 18:08:18;;;;;;;1999.90;999.90;;;;;;;15.33;79.15;100448.03;15683397;28;20041;-59
2021/10/05 18:15:52;;;;;;;1999.90;999.90;;;;;;;15.25;79.57;100452.69;15646494;28;20133;-60
2021/10/05 18:23:24;;;;;;;1999.90;999.90;;;;;;;15.02;80.34;100430.97;15673977;28;20049;-60
2021/10/05 18:30:58;;;;;;;1999.90;999.90;;;;;;;15.14;78.49;100429.19;15712121;28;20045;-59
2021/10/05 18:38:31;;;;;;;1999.90;999.90;;;;;;;15.08;79.06;100427.84;15705095;28;20052;-59
2021/10/05 18:46:12;;;;;;;1999.90;999.90;;;;;;;15.08;78.19;100427.84;15684328;28;20065;-60
2021/10/05 18:53:44;;;;;;;1999.90;999.90;;;;;;;14.71;79.35;100443.13;15687716;28;20060;-60
2021/10/05 19:01:18;;;;;;;1999.90;999.90;;;;;;;14.53;80.64;100441.91;15649620;28;20567;-60
2021/10/05 19:08:50;;;;;;;1999.90;999.90;;;;;;;14.64;79.59;100437.34;15677687;28;20052;-62
2021/10/05 19:16:24;;;;;;;1999.90;999.90;;;;;;;14.52;79.53;100450.72;15681667;28;20068;-64
2021/10/05 19:23:56;;;;;;;1999.90;999.90;;;;;;;14.26;81.36;100443.66;15655489;28;20045;-63
2021/10/05 19:31:30;;;;;;;1999.90;999.90;;;;;;;14.51;80.14;100452.72;15694784;28;20043;-63
2021/10/05 19:39:04;;;;;;;1999.90;999.90;;;;;;;14.34;80.90;100455.88;15616627;28;20095;-64
2021/10/05 19:46:37;;;;;;;;;;;;;;;14.53;80.36;100472.00;15739537;28;20045;-63
2021/10/05 19:54:10;;;;;;;1999.90;999.90;;;;;;;14.33;81.14;100469.09;15741049;28;19920;-64
2021/10/05 20:01:43;;;;;;;1999.90;999.90;;;;;;;13.82;84.17;100477.44;15716779;28;20590;-63
2021/10/05 20:09:16;;;;;;;1999.90;999.90;;;;;;;13.89;84.15;100493.66;15725258;28;20485;-63
2021/10/05 20:16:49;;;;;;;1999.90;999.90;;;;;;;13.98;84.26;100507.50;15731970;28;20049;-64
2021/10/05 20:24:22;;;;;;;1999.90;999.90;;;;;;;13.82;84.95;100505.47;15686451;28;20536;-64
2021/10/05 20:31:55;;;;;;;1999.90;999.90;;;;;;;14.06;83.77;100509.28;15651802;28;20045;-63
2021/10/05 20:39:28;;;;;;;1999.90;999.90;;;;;;;13.70;85.95;100501.94;15681231;28;20534;-63
2021/10/05 20:47:01;;;;;;;1999.90;999.90;;;;;;;13.62;86.53;100484.09;15661573;28;20053;-64
2021/10/05 20:54:34;;;;;;;1999.90;999.90;;;;;;;13.99;84.88;100492.28;15702790;28;20048;-61
2021/10/05 21:02:08;;;;;;;1999.90;999.90;;;;;;;13.84;85.52;100493.91;15720272;28;20051;-61
2021/10/05 21:09:40;;;;;;;1999.90;999.90;;;;;;;13.69;86.34;100489.91;15673905;28;20036;-62
2021/10/05 21:17:15;;;;;;;1999.90;999.90;;;;;;;13.64;86.78;100511.78;15680169;28;20056;-62
2021/10/05 21:24:47;;;;;;;1999.90;999.90;;;;;;;13.87;84.95;100529.66;15695080;28;20037;-63
2021/10/05 21:32:21;;;;;;;1999.90;999.90;;;;;;;13.71;85.64;100532.41;15695995;28;20041;-62
2021/10/05 21:39:53;;;;;;;1999.90;999.90;;;;;;;13.81;84.62;100523.47;15703396;28;20037;-62
2021/10/05 21:47:27;;;;;;;1999.90;999.90;;;;;;;13.98;83.91;100529.94;15729701;28;20044;-62
2021/10/05 21:54:59;;;;;;;1999.90;999.90;;;;;;;13.84;83.84;100528.38;15729389;28;20501;-63
2021/10/05 22:02:33;;;;;;;1999.90;999.90;;;;;;;13.88;83.89;100534.09;15746963;28;20051;-62
2021/10/05 22:10:06;;;;;;;1999.90;999.90;;;;;;;13.80;83.59;100533.06;15745004;28;20052;-63
2021/10/05 22:17:40;;;;;;;1999.90;999.90;;;;;;;13.95;83.18;100541.84;15745877;28;20047;-63
2021/10/05 22:25:14;;;;;;;1999.90;999.90;;;;;;;13.92;83.41;100536.97;15628278;28;20038;-63
2021/10/05 22:32:48;;;;;;;1999.90;999.90;;;;;;;14.19;82.82;100547.34;15620937;28;20096;-63
2021/10/05 22:40:23;;;;;;;1999.90;999.90;;;;;;;13.95;83.29;100550.28;15620231;28;20108;-64
2021/10/05 22:47:57;;;;;;;1999.90;999.90;;;;;;;13.90;83.23;100564.56;15619921;28;20054;-62
2021/10/05 22:55:29;;;;;;;1999.90;999.90;;;;;;;14.00;82.59;100561.25;15600968;28;20049;-62
2021/10/05 23:03:03;;;;;;;1999.90;999.90;;;;;;;13.91;83.10;100547.38;15631894;28;20490;-62
2021/10/05 23:10:35;;;;;;;1999.90;999.90;;;;;;;13.79;84.12;100556.69;15614098;28;20045;-62
2021/10/05 23:18:09;;;;;;;1999.90;999.90;;;;;;;13.93;84.38;100559.06;15634180;28;20053;-64
2021/10/05 23:25:41;;;;;;;1999.90;999.90;;;;;;;14.03;83.49;100564.13;15676946;28;20365;-63
2021/10/05 23:33:15;;;;;;;1999.90;999.90;;;;;;;14.10;83.27;100569.94;15627494;28;20121;-63
2021/10/05 23:40:47;;;;;;;;;;;;;;;14.03;83.56;100572.56;15617363;28;20502;-63
2021/10/05 23:48:21;;;;;;;1999.90;999.90;;;;;;;14.06;83.12;100569.03;15634181;28;19920;-63
2021/10/05 23:55:53;;;;;;;;;;;;;;;14.48;81.76;100568.53;15678533;28;20049;-64
